createdAt,value
2023-02-22T00:00:45.177Z,10.68
2023-02-22T00:03:16.488Z,12.60
2023-02-22T00:05:47.199Z,11.25
2023-02-22T00:08:16.499Z,11.50
2023-02-22T00:10:44.801Z,13.18
2023-02-22T00:13:15.465Z,14.05
2023-02-22T00:15:44.325Z,13.82
2023-02-22T00:18:16.306Z,13.98
2023-02-22T00:20:44.336Z,12.70
2023-02-22T00:23:16.186Z,16.02
2023-02-22T00:25:44.123Z,12.48
2023-02-22T00:28:12.252Z,12.55
2023-02-22T00:30:43.775Z,11.02
2023-02-22T00:33:12.580Z,11.73
2023-02-22T00:35:45.971Z,9.15
2023-02-22T00:38:15.688Z,12.48
2023-02-22T00:40:45.357Z,13.52
2023-02-22T00:43:13.756Z,14.35
2023-02-22T00:45:41.936Z,12.25
2023-02-22T00:48:11.082Z,12.27
2023-02-22T00:50:39.264Z,11.10
2023-02-22T00:53:09.334Z,12.50
2023-02-22T00:55:38.766Z,10.20
2023-02-22T00:58:07.289Z,13.55
2023-02-22T01:00:38.580Z,9.35
2023-02-22T01:03:07.639Z,12.60
2023-02-22T01:05:36.464Z,14.48
2023-02-22T01:08:07.626Z,9.63
2023-02-22T01:10:39.150Z,11.25
2023-02-22T01:13:12.245Z,12.65
2023-02-22T01:15:44.910Z,12.07
2023-02-22T01:18:17.336Z,12.10
2023-02-22T01:20:48.182Z,12.03
2023-02-22T01:23:17.412Z,10.60
2023-02-22T01:25:47.001Z,10.60
2023-02-22T01:28:15.878Z,12.07
2023-02-22T01:30:44.000Z,11.70
2023-02-22T01:33:13.126Z,11.23
2023-02-22T01:35:41.297Z,11.27
2023-02-22T01:38:10.180Z,11.43
2023-02-22T01:40:41.939Z,12.35
2023-02-22T01:43:20.603Z,13.65
2023-02-22T01:45:57.273Z,15.52
2023-02-22T01:48:39.846Z,15.50
2023-02-22T01:51:12.088Z,11.65
2023-02-22T01:53:46.673Z,12.40
2023-02-22T01:56:16.202Z,14.85
2023-02-22T01:58:49.425Z,19.42
2023-02-22T02:01:21.078Z,17.10
2023-02-22T02:03:49.502Z,18.03
2023-02-22T02:06:20.247Z,19.50
2023-02-22T02:08:56.082Z,17.95
2023-02-22T02:11:26.757Z,19.08
2023-02-22T02:13:58.776Z,20.70
2023-02-22T02:16:36.627Z,17.33
2023-02-22T02:19:07.011Z,21.17
2023-02-22T02:21:59.673Z,18.90
2023-02-22T02:25:18.536Z,20.52
2023-02-22T02:28:16.618Z,18.23
2023-02-22T02:31:14.179Z,18.98
2023-02-22T02:33:50.594Z,22.80
2023-02-22T02:36:27.112Z,20.45
2023-02-22T02:39:00.352Z,20.63
2023-02-22T02:41:32.135Z,23.23
2023-02-22T02:44:03.852Z,21.35
2023-02-22T02:46:36.834Z,20.63
2023-02-22T02:49:12.246Z,20.85
2023-02-22T02:51:44.101Z,20.05
2023-02-22T02:54:14.123Z,19.17
2023-02-22T02:56:43.887Z,21.43
2023-02-22T02:59:25.698Z,27.20
2023-02-22T03:02:05.840Z,22.27
2023-02-22T03:05:00.024Z,21.60
2023-02-22T03:07:50.641Z,26.85
2023-02-22T03:10:37.881Z,23.92
2023-02-22T03:13:14.142Z,22.48
2023-02-22T03:15:52.514Z,22.73
2023-02-22T03:18:29.144Z,24.48
2023-02-22T03:21:06.318Z,21.30
2023-02-22T03:23:38.850Z,21.52
2023-02-22T03:26:12.070Z,22.55
2023-02-22T03:28:44.278Z,22.10
2023-02-22T03:31:15.688Z,23.25
2023-02-22T03:33:48.920Z,27.63
2023-02-22T03:36:25.021Z,27.37
2023-02-22T03:38:58.572Z,25.52
2023-02-22T03:41:28.004Z,25.92
2023-02-22T03:44:01.215Z,28.25
2023-02-22T03:46:31.251Z,24.17
2023-02-22T03:49:04.423Z,24.37
2023-02-22T03:51:40.227Z,27.35
2023-02-22T03:54:09.392Z,24.88
2023-02-22T03:56:47.316Z,29.38
2023-02-22T03:59:16.107Z,28.25
2023-02-22T04:01:45.066Z,27.15
2023-02-22T04:04:13.011Z,29.13
2023-02-22T04:06:42.490Z,27.67
2023-02-22T04:09:10.797Z,31.67
2023-02-22T04:11:38.808Z,31.92
2023-02-22T04:14:07.107Z,25.77
2023-02-22T04:16:35.445Z,28.45
2023-02-22T04:19:06.319Z,26.13
2023-02-22T04:21:35.869Z,29.05
2023-02-22T04:24:06.671Z,26.60
2023-02-22T04:26:34.859Z,29.40
2023-02-22T04:29:05.365Z,26.85
2023-02-22T04:31:40.106Z,27.17
2023-02-22T04:34:08.231Z,27.48
2023-02-22T04:36:42.366Z,26.73
2023-02-22T04:39:12.176Z,27.52
2023-02-22T04:41:40.132Z,27.73
2023-02-22T04:44:08.936Z,29.17
2023-02-22T04:46:37.006Z,27.90
2023-02-22T04:49:05.248Z,23.42
2023-02-22T04:51:36.975Z,23.73
2023-02-22T04:54:10.263Z,22.17
2023-02-22T04:56:44.070Z,24.65
2023-02-22T04:59:12.170Z,23.67
2023-02-22T05:01:43.708Z,29.67
2023-02-22T05:04:11.683Z,24.17
2023-02-22T05:06:39.650Z,28.87
2023-02-22T05:09:07.622Z,22.57
2023-02-22T05:11:35.607Z,24.17
2023-02-22T05:14:04.951Z,26.13
2023-02-22T05:16:32.956Z,23.40
2023-02-22T05:19:00.899Z,22.63
2023-02-22T05:21:28.882Z,24.67
2023-02-22T05:23:57.493Z,27.67
2023-02-22T05:26:25.497Z,22.63
2023-02-22T05:28:53.498Z,26.83
2023-02-22T05:31:22.905Z,22.60
2023-02-22T05:33:51.019Z,27.30
2023-02-22T05:36:18.988Z,28.60
2023-02-22T05:38:47.006Z,23.60
2023-02-22T05:41:15.466Z,26.50
2023-02-22T05:43:43.552Z,29.70
2023-02-22T05:46:11.646Z,23.17
2023-02-22T05:48:41.024Z,26.30
2023-02-22T05:51:09.713Z,26.00
2023-02-22T05:53:38.031Z,23.83
2023-02-22T05:56:06.682Z,24.80
2023-02-22T05:58:34.685Z,24.37
2023-02-22T06:01:03.422Z,22.07
2023-02-22T06:03:31.517Z,23.57
2023-02-22T06:06:00.892Z,20.67
2023-02-22T06:08:28.857Z,23.40
2023-02-22T06:10:56.824Z,19.57
2023-02-22T06:13:24.851Z,21.20
2023-02-22T06:15:52.852Z,23.87
2023-02-22T06:18:20.841Z,25.57
2023-02-22T06:20:48.962Z,21.50
2023-02-22T06:23:18.351Z,19.93
2023-02-22T06:25:46.355Z,25.63
2023-02-22T06:28:14.359Z,21.88
2023-02-22T06:30:43.034Z,24.65
2023-02-22T06:33:11.808Z,26.58
2023-02-22T06:35:39.800Z,26.87
2023-02-22T06:38:07.789Z,30.40
2023-02-22T06:40:37.165Z,31.67
2023-02-22T06:43:05.210Z,28.37
2023-02-22T06:45:33.174Z,33.73
2023-02-22T06:48:01.331Z,32.83
2023-02-22T06:50:31.188Z,30.17
2023-02-22T06:52:59.897Z,34.97
2023-02-22T06:55:30.368Z,29.87
2023-02-22T06:58:00.519Z,31.70
2023-02-22T07:00:30.356Z,26.97
2023-02-22T07:02:59.395Z,24.55
2023-02-22T07:05:28.396Z,27.53
2023-02-22T07:08:02.767Z,29.02
2023-02-22T07:10:33.443Z,33.13
2023-02-22T07:13:03.469Z,32.13
2023-02-22T07:15:32.679Z,30.13
2023-02-22T07:18:00.831Z,33.83
2023-02-22T07:20:30.475Z,33.83
2023-02-22T07:22:58.521Z,31.90
2023-02-22T07:25:27.066Z,34.70
2023-02-22T07:27:55.028Z,33.38
2023-02-22T07:30:26.349Z,36.60
2023-02-22T07:32:55.867Z,27.38
2023-02-22T07:35:26.434Z,65.10
2023-02-22T07:37:55.984Z,27.90
2023-02-22T07:40:25.781Z,32.20
2023-02-22T07:42:59.516Z,30.23
2023-02-22T07:45:30.552Z,29.48
2023-02-22T07:47:58.942Z,29.00
2023-02-22T07:50:30.141Z,29.30
2023-02-22T07:53:00.205Z,36.75
2023-02-22T07:55:30.220Z,28.48
2023-02-22T07:57:59.981Z,30.37
2023-02-22T08:00:30.999Z,27.08
2023-02-22T08:03:00.911Z,27.52
2023-02-22T08:05:30.588Z,32.10
2023-02-22T08:07:58.804Z,22.30
2023-02-22T08:10:27.904Z,20.67
2023-02-22T08:12:57.673Z,20.92
2023-02-22T08:15:29.475Z,20.05
2023-02-22T08:18:01.057Z,17.83
2023-02-22T08:20:30.188Z,18.00
2023-02-22T08:22:59.266Z,20.88
2023-02-22T08:25:29.934Z,22.33
2023-02-22T08:28:01.299Z,26.40
2023-02-22T08:30:31.417Z,31.08
2023-02-22T08:33:02.606Z,21.40
2023-02-22T08:35:32.399Z,27.77
2023-02-22T08:38:03.138Z,22.88
2023-02-22T08:40:34.148Z,19.70
2023-02-22T08:43:02.693Z,21.73
2023-02-22T08:45:30.770Z,19.17
2023-02-22T08:48:00.741Z,22.33
2023-02-22T08:50:30.539Z,21.70
2023-02-22T08:53:01.544Z,22.70
2023-02-22T08:55:32.244Z,18.58
2023-02-22T08:58:01.492Z,23.33
2023-02-22T09:00:33.094Z,24.98
2023-02-22T09:03:03.399Z,23.13
2023-02-22T09:05:32.060Z,23.15
2023-02-22T09:08:00.939Z,24.63
2023-02-22T09:10:31.123Z,24.20
2023-02-22T09:13:00.977Z,21.70
2023-02-22T09:15:29.815Z,25.25
2023-02-22T09:17:58.179Z,24.25
2023-02-22T09:20:28.616Z,24.98
2023-02-22T09:22:56.960Z,25.25
2023-02-22T09:25:25.146Z,22.70
2023-02-22T09:27:54.780Z,28.38
2023-02-22T09:30:27.387Z,25.13
2023-02-22T09:32:58.894Z,26.27
2023-02-22T09:35:28.821Z,32.92
2023-02-22T09:37:57.729Z,27.48
2023-02-22T09:40:29.840Z,23.55
2023-02-22T09:43:14.573Z,25.38
2023-02-22T09:45:57.432Z,25.10
2023-02-22T09:48:26.286Z,26.13
2023-02-22T09:51:00.721Z,27.08
2023-02-22T09:53:33.335Z,27.25
2023-02-22T09:56:06.194Z,28.42
2023-02-22T09:58:36.811Z,22.55
2023-02-22T10:01:17.718Z,27.92
2023-02-22T10:03:52.097Z,27.52
2023-02-22T10:06:25.463Z,24.92
2023-02-22T10:08:56.924Z,24.67
2023-02-22T10:11:39.984Z,26.02
2023-02-22T10:14:28.772Z,22.30
2023-02-22T10:17:03.795Z,25.40
2023-02-22T10:19:39.555Z,26.35
2023-02-22T10:22:43.405Z,23.08
2023-02-22T10:25:14.493Z,25.02
2023-02-22T10:27:48.961Z,24.90
2023-02-22T10:30:25.451Z,25.92
2023-02-22T10:32:59.759Z,23.60
2023-02-22T10:35:30.253Z,23.08
2023-02-22T10:38:05.403Z,23.85
2023-02-22T10:40:33.626Z,22.08
2023-02-22T10:43:06.849Z,27.60
2023-02-22T10:45:37.199Z,29.85
2023-02-22T10:48:11.654Z,33.90
2023-02-22T10:50:42.281Z,29.65
2023-02-22T10:53:12.737Z,31.02
2023-02-22T10:56:07.549Z,29.17
2023-02-22T10:58:47.576Z,31.50
2023-02-22T11:01:23.307Z,24.77
2023-02-22T11:04:04.135Z,29.70
2023-02-22T11:06:33.897Z,30.83
2023-02-22T11:09:15.687Z,28.52
2023-02-22T11:11:45.970Z,28.60
2023-02-22T11:14:25.606Z,25.70
2023-02-22T11:16:56.939Z,35.33
2023-02-22T11:19:28.454Z,26.85
2023-02-22T11:22:00.483Z,32.30
2023-02-22T11:24:43.614Z,29.17
2023-02-22T11:27:27.076Z,33.72
2023-02-22T11:29:59.442Z,32.83
2023-02-22T11:32:27.515Z,29.27
2023-02-22T11:35:20.765Z,29.05
2023-02-22T11:37:48.844Z,36.30
2023-02-22T11:40:22.283Z,35.80
2023-02-22T11:43:08.273Z,32.78
2023-02-22T11:45:37.393Z,28.17
2023-02-22T11:48:09.011Z,29.40
2023-02-22T11:50:46.575Z,28.63
2023-02-22T11:53:27.832Z,28.90
2023-02-22T11:56:12.095Z,29.95
2023-02-22T11:58:46.668Z,25.20
2023-02-22T12:01:23.208Z,32.22
2023-02-22T12:04:33.136Z,27.05
2023-02-22T12:07:15.834Z,29.65
2023-02-22T12:09:48.704Z,28.38
2023-02-22T12:12:28.555Z,34.35
2023-02-22T12:15:04.248Z,28.40
2023-02-22T12:17:54.355Z,27.73
2023-02-22T12:20:31.984Z,28.17
2023-02-22T12:23:06.870Z,29.05
2023-02-22T12:25:38.893Z,29.83
2023-02-22T12:28:24.682Z,29.42
2023-02-22T12:30:57.710Z,34.47
2023-02-22T12:33:30.309Z,29.50
2023-02-22T12:36:00.571Z,29.45
2023-02-22T12:38:37.263Z,27.52
2023-02-22T12:41:15.126Z,28.17
2023-02-22T12:43:48.448Z,30.05
2023-02-22T12:46:21.449Z,32.97
2023-02-22T12:48:53.419Z,29.35
2023-02-22T12:51:29.327Z,30.60
2023-02-22T12:54:03.219Z,30.63
2023-02-22T12:56:35.967Z,28.35
2023-02-22T12:59:13.536Z,34.13
2023-02-22T13:01:45.323Z,30.45
2023-02-22T13:04:20.895Z,26.00
2023-02-22T13:07:07.092Z,22.75
2023-02-22T13:09:54.031Z,36.22
2023-02-22T13:12:28.376Z,27.23
2023-02-22T13:15:10.738Z,25.05
2023-02-22T13:17:48.010Z,35.78
2023-02-22T13:20:23.195Z,27.55
2023-02-22T13:22:56.969Z,30.02
2023-02-22T13:25:32.927Z,24.02
2023-02-22T13:28:10.998Z,24.92
2023-02-22T13:30:45.658Z,33.80
2023-02-22T13:33:29.902Z,29.60
2023-02-22T13:36:25.912Z,24.80
2023-02-22T13:39:30.379Z,21.35
2023-02-22T13:42:14.953Z,21.52
2023-02-22T13:45:21.813Z,25.63
2023-02-22T13:48:16.608Z,21.98
2023-02-22T13:51:07.758Z,25.52
2023-02-22T13:53:44.796Z,29.20
2023-02-22T13:56:15.947Z,24.83
2023-02-22T13:58:55.638Z,29.67
2023-02-22T14:01:46.785Z,29.08
2023-02-22T14:04:40.732Z,28.05
2023-02-22T14:07:57.033Z,23.92
2023-02-22T14:10:47.765Z,30.45
2023-02-22T14:13:17.207Z,29.13
2023-02-22T14:16:24.336Z,32.05
2023-02-22T14:19:06.423Z,22.73
2023-02-22T14:21:36.309Z,22.23
2023-02-22T14:24:10.990Z,25.00
2023-02-22T14:26:40.437Z,28.45
2023-02-22T14:29:17.797Z,25.38
2023-02-22T14:32:02.280Z,29.40
2023-02-22T14:34:50.652Z,26.63
2023-02-22T14:37:24.975Z,25.38
2023-02-22T14:39:56.913Z,20.35
2023-02-22T14:42:30.864Z,24.35
2023-02-22T14:45:04.062Z,29.08
2023-02-22T14:47:40.953Z,27.42
2023-02-22T14:50:15.967Z,21.80
2023-02-22T14:52:50.059Z,24.77
2023-02-22T14:55:22.874Z,25.80
2023-02-22T14:58:02.420Z,23.90
2023-02-22T15:00:42.090Z,23.98
2023-02-22T15:03:20.471Z,22.27
2023-02-22T15:05:49.726Z,22.92
2023-02-22T15:08:28.075Z,23.00
2023-02-22T15:10:56.102Z,28.20
2023-02-22T15:13:26.467Z,28.42
2023-02-22T15:16:00.353Z,27.50
2023-02-22T15:18:34.951Z,25.60
2023-02-22T15:21:10.099Z,22.30
2023-02-22T15:23:46.955Z,25.90
2023-02-22T15:26:19.932Z,28.83
2023-02-22T15:28:48.787Z,24.85
2023-02-22T15:31:26.618Z,23.02
2023-02-22T15:33:55.460Z,22.38
2023-02-22T15:36:27.656Z,19.10
2023-02-22T15:38:57.048Z,22.67
2023-02-22T15:41:29.899Z,17.90
2023-02-22T15:44:07.939Z,21.17
2023-02-22T15:46:42.371Z,21.60
2023-02-22T15:49:23.327Z,22.80
2023-02-22T15:52:03.774Z,24.23
2023-02-22T15:54:40.699Z,20.13
2023-02-22T15:57:09.424Z,19.77
2023-02-22T15:59:44.832Z,24.48
2023-02-22T16:02:30.038Z,25.77
2023-02-22T16:05:01.656Z,24.83
2023-02-22T16:07:30.009Z,22.77
2023-02-22T16:10:07.900Z,20.38
2023-02-22T16:12:36.833Z,22.40
2023-02-22T16:15:15.423Z,22.42
2023-02-22T16:17:55.999Z,19.50
2023-02-22T16:20:36.241Z,25.60
2023-02-22T16:23:25.561Z,19.10
2023-02-22T16:26:18.967Z,20.95
2023-02-22T16:28:52.930Z,20.38
2023-02-22T16:31:22.710Z,26.02
2023-02-22T16:33:51.247Z,23.85
2023-02-22T16:36:20.107Z,26.27
2023-02-22T16:38:49.171Z,20.35
2023-02-22T16:41:20.492Z,23.80
2023-02-22T16:43:51.362Z,25.48
2023-02-22T16:46:20.365Z,23.35
2023-02-22T16:48:48.581Z,24.20
2023-02-22T16:51:22.727Z,19.95
2023-02-22T16:53:51.839Z,25.98
2023-02-22T16:56:26.632Z,23.88
2023-02-22T16:58:54.876Z,21.30
2023-02-22T17:01:23.894Z,26.63
2023-02-22T17:03:53.789Z,24.80
2023-02-22T17:06:21.923Z,24.95
2023-02-22T17:08:51.991Z,18.77
2023-02-22T17:11:21.970Z,22.55
2023-02-22T17:13:51.860Z,22.90
2023-02-22T17:16:20.351Z,20.38
2023-02-22T17:18:49.892Z,20.80
2023-02-22T17:21:17.876Z,18.70
2023-02-22T17:23:46.258Z,24.35
2023-02-22T17:26:17.581Z,17.08
2023-02-22T17:28:47.255Z,19.35
2023-02-22T17:31:22.477Z,23.75
2023-02-22T17:33:51.394Z,18.00
2023-02-22T17:36:20.908Z,22.23
2023-02-22T17:38:49.977Z,22.08
2023-02-22T17:41:18.035Z,25.75
2023-02-22T17:43:47.454Z,23.95
2023-02-22T17:46:15.661Z,22.17
2023-02-22T17:48:43.941Z,20.88
2023-02-22T17:51:13.461Z,24.70
2023-02-22T17:53:41.521Z,23.30
2023-02-22T17:56:13.372Z,26.75
2023-02-22T17:58:42.156Z,19.05
2023-02-22T18:01:24.539Z,22.15
2023-02-22T18:03:53.229Z,36.80
2023-02-22T18:06:25.149Z,27.73
2023-02-22T18:08:56.211Z,26.25
2023-02-22T18:11:26.420Z,26.13
2023-02-22T18:13:55.108Z,30.90
2023-02-22T18:16:25.702Z,27.55
2023-02-22T18:18:54.104Z,30.48
2023-02-22T18:21:22.130Z,24.70
2023-02-22T18:23:50.188Z,26.85
2023-02-22T18:26:20.348Z,25.40
2023-02-22T18:28:49.653Z,27.98
2023-02-22T18:31:19.786Z,24.27
2023-02-22T18:33:51.250Z,26.58
2023-02-22T18:36:23.332Z,25.55
2023-02-22T18:38:52.856Z,20.98
2023-02-22T18:41:25.292Z,21.95
2023-02-22T18:43:55.240Z,23.90
2023-02-22T18:46:24.907Z,19.83
2023-02-22T18:48:56.203Z,24.63
2023-02-22T18:51:25.202Z,22.85
2023-02-22T18:53:59.838Z,21.25
2023-02-22T18:56:30.104Z,20.50
2023-02-22T18:58:59.802Z,23.60
2023-02-22T19:01:29.061Z,26.90
2023-02-22T19:03:59.333Z,25.55
2023-02-22T19:06:27.394Z,19.75
2023-02-22T19:08:55.344Z,29.40
2023-02-22T19:11:25.422Z,24.70
2023-02-22T19:13:55.451Z,24.13
2023-02-22T19:16:25.389Z,27.08
2023-02-22T19:18:57.392Z,32.03
2023-02-22T19:21:28.010Z,26.02
2023-02-22T19:24:01.321Z,23.33
2023-02-22T19:26:30.169Z,26.10
2023-02-22T19:28:59.698Z,26.70
2023-02-22T19:31:31.604Z,33.92
2023-02-22T19:34:01.764Z,32.15
2023-02-22T19:36:31.324Z,29.77
2023-02-22T19:39:02.043Z,28.67
2023-02-22T19:41:31.023Z,28.60
2023-02-22T19:43:59.254Z,31.13
2023-02-22T19:46:27.247Z,31.27
2023-02-22T19:48:56.443Z,31.58
2023-02-22T19:51:27.826Z,31.13
2023-02-22T19:53:59.878Z,33.47
2023-02-22T19:56:28.420Z,29.77
2023-02-22T19:58:57.801Z,30.98
2023-02-22T20:01:29.166Z,32.70
2023-02-22T20:04:00.348Z,28.88
2023-02-22T20:06:30.913Z,31.77
2023-02-22T20:09:00.763Z,30.20
2023-02-22T20:11:29.521Z,30.38
2023-02-22T20:13:58.271Z,28.27
2023-02-22T20:16:26.315Z,27.65
2023-02-22T20:18:56.205Z,27.98
2023-02-22T20:21:30.775Z,32.70
2023-02-22T20:24:01.057Z,35.15
2023-02-22T20:26:31.975Z,34.50
2023-02-22T20:29:00.825Z,31.45
2023-02-22T20:31:29.630Z,30.98
2023-02-22T20:33:59.644Z,31.52
2023-02-22T20:36:29.270Z,34.33
2023-02-22T20:39:00.709Z,32.83
2023-02-22T20:41:30.361Z,28.67
2023-02-22T20:43:59.584Z,30.77
2023-02-22T20:46:31.891Z,31.92
2023-02-22T20:49:02.056Z,27.80
2023-02-22T20:51:30.584Z,28.67
2023-02-22T20:54:00.314Z,27.13
2023-02-22T20:56:30.369Z,24.70
2023-02-22T20:58:59.544Z,28.95
2023-02-22T21:01:28.072Z,28.15
2023-02-22T21:04:00.515Z,35.30
2023-02-22T21:06:29.234Z,28.58
2023-02-22T21:08:59.680Z,26.20
2023-02-22T21:11:31.637Z,25.27
2023-02-22T21:14:00.541Z,25.63
2023-02-22T21:16:30.803Z,31.15
2023-02-22T21:19:01.179Z,31.77
2023-02-22T21:21:29.925Z,28.98
2023-02-22T21:24:01.761Z,26.90
2023-02-22T21:26:32.734Z,26.40
2023-02-22T21:29:03.441Z,27.50
2023-02-22T21:31:32.378Z,36.80
2023-02-22T21:34:01.269Z,30.83
2023-02-22T21:36:30.114Z,32.90
2023-02-22T21:39:00.264Z,29.67
2023-02-22T21:41:29.950Z,27.17
2023-02-22T21:44:00.981Z,22.75
2023-02-22T21:46:30.083Z,26.23
2023-02-22T21:48:59.554Z,22.90
2023-02-22T21:51:31.943Z,24.05
2023-02-22T21:54:02.140Z,26.42
2023-02-22T21:56:32.393Z,32.65
2023-02-22T21:59:03.611Z,26.63
2023-02-22T22:01:34.077Z,29.80
2023-02-22T22:04:02.880Z,28.60
2023-02-22T22:06:32.772Z,29.77
2023-02-22T22:09:01.260Z,27.40
2023-02-22T22:11:30.704Z,24.67
2023-02-22T22:13:59.747Z,21.23
2023-02-22T22:16:30.351Z,27.05
2023-02-22T22:18:58.485Z,30.52
2023-02-22T22:21:26.859Z,25.40
2023-02-22T22:23:56.175Z,26.70
2023-02-22T22:26:25.846Z,23.83
2023-02-22T22:28:55.927Z,25.75
2023-02-22T22:31:26.026Z,25.23
2023-02-22T22:33:56.960Z,27.88
2023-02-22T22:36:26.752Z,26.70
2023-02-22T22:38:57.604Z,28.30
2023-02-22T22:41:28.116Z,26.02
2023-02-22T22:43:56.809Z,32.22
2023-02-22T22:46:24.844Z,25.33
2023-02-22T22:48:52.865Z,29.98
2023-02-22T22:51:23.046Z,24.88
2023-02-22T22:53:51.985Z,25.10
2023-02-22T22:56:26.070Z,22.70
2023-02-22T22:58:55.454Z,29.10
2023-02-22T23:01:27.806Z,25.33
2023-02-22T23:04:01.343Z,27.35
2023-02-22T23:06:33.850Z,23.77
2023-02-22T23:09:10.396Z,21.60
2023-02-22T23:11:44.435Z,23.90
2023-02-22T23:14:13.951Z,23.90
2023-02-22T23:16:42.801Z,23.60
2023-02-22T23:19:10.881Z,24.92
2023-02-22T23:21:43.103Z,22.00
2023-02-22T23:24:15.166Z,23.13
2023-02-22T23:26:48.348Z,24.75
2023-02-22T23:29:17.819Z,26.98
2023-02-22T23:31:48.367Z,22.52
2023-02-22T23:34:17.901Z,22.60
2023-02-22T23:36:47.732Z,20.23
2023-02-22T23:39:20.576Z,19.50
2023-02-22T23:41:51.164Z,27.05
2023-02-22T23:44:19.856Z,24.65
2023-02-22T23:46:49.306Z,25.35
2023-02-22T23:49:20.422Z,23.52
2023-02-22T23:51:50.417Z,21.70
2023-02-22T23:54:20.407Z,26.70
2023-02-22T23:56:56.842Z,24.65
2023-02-22T23:59:25.877Z,20.65
